sensor_id;sensor_type;location;lat;lon;timestamp;pressure;altitude;pressure_sealevel;temperature;humidity
20825;BME280;10573;50.936;6.978;2023-04-15T00:01:01;100331.25;;;10.55;53.00
20825;BME280;10573;50.936;6.978;2023-04-15T00:03:26;100332.81;;;10.39;53.01
20825;BME280;10573;50.936;6.978;2023-04-15T00:05:52;100325.53;;;10.30;53.46
20825;BME280;10573;50.936;6.978;2023-04-15T00:08:18;100331.41;;;10.35;53.33
20825;BME280;10573;50.936;6.978;2023-04-15T00:10:43;100329.06;;;10.40;53.69
20825;BME280;10573;50.936;6.978;2023-04-15T00:13:10;100333.38;;;10.33;53.55
20825;BME280;10573;50.936;6.978;2023-04-15T00:15:35;100336.38;;;10.12;53.89
20825;BME280;10573;50.936;6.978;2023-04-15T00:18:01;100331.25;;;10.27;53.95
20825;BME280;10573;50.936;6.978;2023-04-15T00:20:27;100324.00;;;10.18;54.08
20825;BME280;10573;50.936;6.978;2023-04-15T00:22:52;100320.53;;;10.07;53.99
20825;BME280;10573;50.936;6.978;2023-04-15T00:25:17;100321.84;;;10.03;54.32
20825;BME280;10573;50.936;6.978;2023-04-15T00:27:42;100320.63;;;9.88;54.44
20825;BME280;10573;50.936;6.978;2023-04-15T00:30:08;100324.31;;;9.97;54.40
20825;BME280;10573;50.936;6.978;2023-04-15T00:32:33;100317.50;;;9.83;54.73
20825;BME280;10573;50.936;6.978;2023-04-15T00:34:58;100327.19;;;9.95;54.32
20825;BME280;10573;50.936;6.978;2023-04-15T00:37:24;100329.69;;;9.79;54.74
20825;BME280;10573;50.936;6.978;2023-04-15T00:39:49;100328.78;;;9.88;54.91
20825;BME280;10573;50.936;6.978;2023-04-15T00:42:15;100327.38;;;9.84;54.75
20825;BME280;10573;50.936;6.978;2023-04-15T00:44:40;100324.50;;;9.85;54.73
20825;BME280;10573;50.936;6.978;2023-04-15T00:47:06;100328.25;;;9.84;54.86
20825;BME280;10573;50.936;6.978;2023-04-15T00:49:32;100324.47;;;9.95;54.63
20825;BME280;10573;50.936;6.978;2023-04-15T00:51:58;100329.03;;;9.95;nan
20825;BME280;10573;50.936;6.978;2023-04-15T00:54:23;100323.34;;;9.88;55.06
20825;BME280;10573;50.936;6.978;2023-04-15T00:56:49;100330.25;;;9.82;54.97
20825;BME280;10573;50.936;6.978;2023-04-15T00:59:14;100323.34;;;9.88;54.97
20825;BME280;10573;50.936;6.978;2023-04-15T01:01:40;100330.31;;;9.72;55.33
20825;BME280;10573;50.936;6.978;2023-04-15T01:04:06;100326.72;;;9.72;55.71
20825;BME280;10573;50.936;6.978;2023-04-15T01:06:32;100328.06;;;9.58;56.22
20825;BME280;10573;50.936;6.978;2023-04-15T01:08:58;100328.63;;;9.62;56.08
20825;BME280;10573;50.936;6.978;2023-04-15T01:11:23;100326.97;;;9.51;56.33
20825;BME280;10573;50.936;6.978;2023-04-15T01:13:49;100322.69;;;9.48;56.82
20825;BME280;10573;50.936;6.978;2023-04-15T01:16:15;100322.94;;;9.55;56.54
20825;BME280;10573;50.936;6.978;2023-04-15T01:18:41;100322.16;;;9.35;56.92
20825;BME280;10573;50.936;6.978;2023-04-15T01:21:06;100322.09;;;9.45;57.12
20825;BME280;10573;50.936;6.978;2023-04-15T01:23:32;100322.38;;;9.51;56.41
20825;BME280;10573;50.936;6.978;2023-04-15T01:25:58;100329.00;;;9.39;57.10
20825;BME280;10573;50.936;6.978;2023-04-15T01:28:23;100322.41;;;9.42;56.97
20825;BME280;10573;50.936;6.978;2023-04-15T01:30:49;100322.31;;;9.33;57.69
20825;BME280;10573;50.936;6.978;2023-04-15T01:33:14;100320.84;;;9.29;57.71
20825;BME280;10573;50.936;6.978;2023-04-15T01:35:40;100326.72;;;9.44;57.34
20825;BME280;10573;50.936;6.978;2023-04-15T01:38:08;100325.88;;;9.34;57.95
20825;BME280;10573;50.936;6.978;2023-04-15T01:40:34;100329.16;;;9.37;57.99
20825;BME280;10573;50.936;6.978;2023-04-15T01:43:02;100325.25;;;9.50;57.38
20825;BME280;10573;50.936;6.978;2023-04-15T01:45:28;100323.84;;;9.36;57.74
20825;BME280;10573;50.936;6.978;2023-04-15T01:47:54;100334.59;;;9.28;58.56
20825;BME280;10573;50.936;6.978;2023-04-15T01:50:19;100322.16;;;9.25;58.15
20825;BME280;10573;50.936;6.978;2023-04-15T01:52:45;100309.44;;;9.16;58.88
20825;BME280;10573;50.936;6.978;2023-04-15T01:55:11;100322.16;;;9.25;58.62
20825;BME280;10573;50.936;6.978;2023-04-15T01:57:38;100325.34;;;9.20;58.69
20825;BME280;10573;50.936;6.978;2023-04-15T02:00:03;100320.50;;;9.04;59.06
20825;BME280;10573;50.936;6.978;2023-04-15T02:02:29;100315.94;;;8.95;59.62
20825;BME280;10573;50.936;6.978;2023-04-15T02:04:55;100317.34;;;8.99;59.04
20825;BME280;10573;50.936;6.978;2023-04-15T02:07:20;100313.34;;;9.03;59.31
20825;BME280;10573;50.936;6.978;2023-04-15T02:09:45;100312.06;;;9.07;58.66
20825;BME280;10573;50.936;6.978;2023-04-15T02:12:11;100309.88;;;9.21;58.39
20825;BME280;10573;50.936;6.978;2023-04-15T02:14:37;100309.88;;;9.21;57.61
20825;BME280;10573;50.936;6.978;2023-04-15T02:17:02;100318.13;;;9.29;56.69
20825;BME280;10573;50.936;6.978;2023-04-15T02:19:34;100329.91;;;9.10;58.23
20825;BME280;10573;50.936;6.978;2023-04-15T02:21:59;100325.69;;;8.88;58.51
20825;BME280;10573;50.936;6.978;2023-04-15T02:24:26;100326.25;;;9.01;58.85
20825;BME280;10573;50.936;6.978;2023-04-15T02:26:51;100328.94;;;8.92;58.73
20825;BME280;10573;50.936;6.978;2023-04-15T02:29:16;100319.94;;;9.01;58.55
20825;BME280;10573;50.936;6.978;2023-04-15T02:31:42;100327.09;;;8.92;58.89
20825;BME280;10573;50.936;6.978;2023-04-15T02:34:07;100333.97;;;8.77;58.93
20825;BME280;10573;50.936;6.978;2023-04-15T02:36:33;100325.69;;;8.78;59.38
20825;BME280;10573;50.936;6.978;2023-04-15T02:38:58;100327.41;;;8.69;59.61
20825;BME280;10573;50.936;6.978;2023-04-15T02:41:24;100329.13;;;8.70;59.83
20825;BME280;10573;50.936;6.978;2023-04-15T02:43:51;100330.25;;;8.87;58.18
20825;BME280;10573;50.936;6.978;2023-04-15T02:46:17;100338.81;;;9.02;57.75
20825;BME280;10573;50.936;6.978;2023-04-15T02:48:42;100345.69;;;8.87;58.53
20825;BME280;10573;50.936;6.978;2023-04-15T02:51:11;100334.13;;;8.95;57.75
20825;BME280;10573;50.936;6.978;2023-04-15T02:53:36;100346.84;;;8.75;58.61
20825;BME280;10573;50.936;6.978;2023-04-15T02:56:02;100353.13;;;8.65;59.30
20825;BME280;10573;50.936;6.978;2023-04-15T02:58:27;100350.00;;;8.50;59.67
20825;BME280;10573;50.936;6.978;2023-04-15T03:00:52;100353.13;;;8.46;60.47
20825;BME280;10573;50.936;6.978;2023-04-15T03:03:18;100358.00;;;8.62;59.99
20825;BME280;10573;50.936;6.978;2023-04-15T03:05:43;100355.56;;;8.49;60.32
20825;BME280;10573;50.936;6.978;2023-04-15T03:08:08;100357.16;;;8.51;60.10
20825;BME280;10573;50.936;6.978;2023-04-15T03:10:34;100353.84;;;8.57;59.69
20825;BME280;10573;50.936;6.978;2023-04-15T03:12:59;100350.53;;;8.54;60.02
20825;BME280;10573;50.936;6.978;2023-04-15T03:15:25;100352.41;;;8.63;59.38
20825;BME280;10573;50.936;6.978;2023-04-15T03:17:51;100345.69;;;8.67;59.51
20825;BME280;10573;50.936;6.978;2023-04-15T03:20:16;100352.28;;;8.84;58.31
20825;BME280;10573;50.936;6.978;2023-04-15T03:22:41;100338.97;;;8.71;58.52
20825;BME280;10573;50.936;6.978;2023-04-15T03:25:07;100348.69;;;8.74;58.31
20825;BME280;10573;50.936;6.978;2023-04-15T03:27:32;100352.56;;;8.71;58.22
20825;BME280;10573;50.936;6.978;2023-04-15T03:29:57;100354.69;;;8.78;58.38
20825;BME280;10573;50.936;6.978;2023-04-15T03:32:23;100360.00;;;8.60;58.73
20825;BME280;10573;50.936;6.978;2023-04-15T03:34:48;100359.41;;;8.56;59.14
20825;BME280;10573;50.936;6.978;2023-04-15T03:37:13;100365.97;;;8.44;59.64
20825;BME280;10573;50.936;6.978;2023-04-15T03:39:39;100374.97;;;8.54;59.71
20825;BME280;10573;50.936;6.978;2023-04-15T03:42:04;100367.69;;;8.45;60.13
20825;BME280;10573;50.936;6.978;2023-04-15T03:44:30;100374.50;;;8.39;59.87
20825;BME280;10573;50.936;6.978;2023-04-15T03:46:55;100371.94;;;8.37;60.29
20825;BME280;10573;50.936;6.978;2023-04-15T03:49:20;100379.53;;;8.44;59.75
20825;BME280;10573;50.936;6.978;2023-04-15T03:51:47;100384.81;;;8.35;59.85
20825;BME280;10573;50.936;6.978;2023-04-15T03:54:12;100384.50;;;8.29;60.86
20825;BME280;10573;50.936;6.978;2023-04-15T03:56:39;100390.50;;;8.32;60.24
20825;BME280;10573;50.936;6.978;2023-04-15T03:59:05;100384.50;;;8.29;60.21
20825;BME280;10573;50.936;6.978;2023-04-15T04:01:30;100394.31;;;8.20;60.84
20825;BME280;10573;50.936;6.978;2023-04-15T04:03:55;100395.06;;;8.22;60.24
20825;BME280;10573;50.936;6.978;2023-04-15T04:06:20;100392.75;;;8.27;60.15
20825;BME280;10573;50.936;6.978;2023-04-15T04:08:46;100394.75;;;8.15;60.68
20825;BME280;10573;50.936;6.978;2023-04-15T04:11:11;100385.91;;;8.23;60.14
20825;BME280;10573;50.936;6.978;2023-04-15T04:13:37;100387.03;;;8.20;60.65
20825;BME280;10573;50.936;6.978;2023-04-15T04:16:02;100393.03;;;8.14;60.76
20825;BME280;10573;50.936;6.978;2023-04-15T04:18:29;100388.28;;;8.06;60.79
20825;BME280;10573;50.936;6.978;2023-04-15T04:20:54;100385.59;;;8.16;60.55
20825;BME280;10573;50.936;6.978;2023-04-15T04:23:19;100394.16;;;8.12;60.48
20825;BME280;10573;50.936;6.978;2023-04-15T04:25:45;100389.63;;;8.22;60.52
20825;BME280;10573;50.936;6.978;2023-04-15T04:28:10;100385.94;;;8.33;60.17
20825;BME280;10573;50.936;6.978;2023-04-15T04:30:36;100386.34;;;8.28;59.78
20825;BME280;10573;50.936;6.978;2023-04-15T04:33:02;100394.44;;;8.09;60.27
20825;BME280;10573;50.936;6.978;2023-04-15T04:35:27;100399.00;;;8.08;60.35
20825;BME280;10573;50.936;6.978;2023-04-15T04:37:52;100404.72;;;8.15;60.40
20825;BME280;10573;50.936;6.978;2023-04-15T04:40:17;100419.84;;;8.07;60.46
20825;BME280;10573;50.936;6.978;2023-04-15T04:42:43;100413.31;;;8.10;60.30
20825;BME280;10573;50.936;6.978;2023-04-15T04:45:09;100410.66;;;7.89;60.76
20825;BME280;10573;50.936;6.978;2023-04-15T04:47:34;100413.78;;;7.84;61.53
20825;BME280;10573;50.936;6.978;2023-04-15T04:50:00;100419.31;;;7.83;61.56
20825;BME280;10573;50.936;6.978;2023-04-15T04:52:25;100419.53;;;7.91;61.23
20825;BME280;10573;50.936;6.978;2023-04-15T04:54:50;100422.03;;;7.83;61.63
20825;BME280;10573;50.936;6.978;2023-04-15T04:57:16;100431.75;;;7.85;61.67
20825;BME280;10573;50.936;6.978;2023-04-15T04:59:41;100428.19;;;7.85;62.13
20825;BME280;10573;50.936;6.978;2023-04-15T05:02:06;100428.31;;;7.83;61.90
20825;BME280;10573;50.936;6.978;2023-04-15T05:04:32;100433.44;;;7.77;61.79
20825;BME280;10573;50.936;6.978;2023-04-15T05:06:57;100426.56;;;7.72;62.22
20825;BME280;10573;50.936;6.978;2023-04-15T05:09:23;100429.94;;;7.96;61.12
20825;BME280;10573;50.936;6.978;2023-04-15T05:11:48;100433.78;;;7.93;61.50
20825;BME280;10573;50.936;6.978;2023-04-15T05:14:14;100428.63;;;7.90;61.92
20825;BME280;10573;50.936;6.978;2023-04-15T05:16:40;100436.50;;;7.93;61.14
20825;BME280;10573;50.936;6.978;2023-04-15T05:19:05;100432.38;;;7.99;61.34
20825;BME280;10573;50.936;6.978;2023-04-15T05:21:32;100428.06;;;7.96;61.12
20825;BME280;10573;50.936;6.978;2023-04-15T05:23:57;100433.59;;;8.16;60.87
20825;BME280;10573;50.936;6.978;2023-04-15T05:26:22;100435.50;;;8.35;61.27
20825;BME280;10573;50.936;6.978;2023-04-15T05:28:48;100439.63;;;8.29;60.77
20825;BME280;10573;50.936;6.978;2023-04-15T05:31:13;100443.25;;;8.39;60.84
20825;BME280;10573;50.936;6.978;2023-04-15T05:33:39;100455.06;;;8.29;61.03
20825;BME280;10573;50.936;6.978;2023-04-15T05:36:04;100451.09;;;8.43;60.97
20825;BME280;10573;50.936;6.978;2023-04-15T05:38:30;100458.00;;;8.56;60.52
20825;BME280;10573;50.936;6.978;2023-04-15T05:40:55;100458.31;;;8.63;60.87
20825;BME280;10573;50.936;6.978;2023-04-15T05:43:21;100459.94;;;8.95;59.56
20825;BME280;10573;50.936;6.978;2023-04-15T05:45:46;100457.22;;;8.95;59.18
20825;BME280;10573;50.936;6.978;2023-04-15T05:48:11;100464.94;;;9.10;59.20
20825;BME280;10573;50.936;6.978;2023-04-15T05:50:39;100477.53;;;9.11;59.49
20825;BME280;10573;50.936;6.978;2023-04-15T05:53:04;100463.38;;;9.17;59.30
20825;BME280;10573;50.936;6.978;2023-04-15T05:55:30;100470.66;;;9.26;58.78
20825;BME280;10573;50.936;6.978;2023-04-15T05:57:56;100474.81;;;9.30;58.78
20825;BME280;10573;50.936;6.978;2023-04-15T06:00:21;100478.47;;;9.78;58.44
20825;BME280;10573;50.936;6.978;2023-04-15T06:02:46;100470.25;;;9.88;56.83
20825;BME280;10573;50.936;6.978;2023-04-15T06:05:11;100475.84;;;9.86;58.91
20825;BME280;10573;50.936;6.978;2023-04-15T06:07:37;100485.34;;;10.20;58.44
20825;BME280;10573;50.936;6.978;2023-04-15T06:10:03;100481.41;;;10.04;57.38
20825;BME280;10573;50.936;6.978;2023-04-15T06:12:28;100484.19;;;10.22;56.28
20825;BME280;10573;50.936;6.978;2023-04-15T06:14:54;100491.31;;;10.33;55.79
20825;BME280;10573;50.936;6.978;2023-04-15T06:17:19;100489.53;;;10.52;55.31
20825;BME280;10573;50.936;6.978;2023-04-15T06:19:45;100484.41;;;10.49;55.65
20825;BME280;10573;50.936;6.978;2023-04-15T06:22:10;100488.31;;;10.64;55.44
20825;BME280;10573;50.936;6.978;2023-04-15T06:24:35;100492.03;;;10.63;54.78
20825;BME280;10573;50.936;6.978;2023-04-15T06:27:01;100492.50;;;10.86;54.47
20825;BME280;10573;50.936;6.978;2023-04-15T06:29:27;100493.50;;;11.03;53.51
20825;BME280;10573;50.936;6.978;2023-04-15T06:31:52;100491.66;;;11.22;52.77
20825;BME280;10573;50.936;6.978;2023-04-15T06:34:18;100493.66;;;11.20;52.72
20825;BME280;10573;50.936;6.978;2023-04-15T06:36:43;100485.72;;;11.45;51.65
20825;BME280;10573;50.936;6.978;2023-04-15T06:39:08;100493.47;;;11.57;51.67
20825;BME280;10573;50.936;6.978;2023-04-15T06:41:34;100502.91;;;10.91;52.81
20825;BME280;10573;50.936;6.978;2023-04-15T06:44:00;100507.03;;;10.77;53.36
20825;BME280;10573;50.936;6.978;2023-04-15T06:46:25;100508.44;;;10.81;53.16
20825;BME280;10573;50.936;6.978;2023-04-15T06:48:50;100511.97;;;11.10;53.20
20825;BME280;10573;50.936;6.978;2023-04-15T06:51:16;100511.97;;;11.10;53.30
20825;BME280;10573;50.936;6.978;2023-04-15T06:53:41;100510.00;;;11.56;51.88
20825;BME280;10573;50.936;6.978;2023-04-15T06:56:08;100516.53;;;11.99;50.95
20825;BME280;10573;50.936;6.978;2023-04-15T06:58:34;100514.66;;;11.82;50.67
20825;BME280;10573;50.936;6.978;2023-04-15T07:00:59;100521.44;;;11.96;50.36
20825;BME280;10573;50.936;6.978;2023-04-15T07:03:24;100525.69;;;12.24;50.19
20825;BME280;10573;50.936;6.978;2023-04-15T07:05:50;100517.88;;;12.30;50.37
20825;BME280;10573;50.936;6.978;2023-04-15T07:08:15;100521.25;;;12.58;49.71
20825;BME280;10573;50.936;6.978;2023-04-15T07:10:40;100526.41;;;12.61;49.50
20825;BME280;10573;50.936;6.978;2023-04-15T07:13:06;100532.78;;;12.78;50.18
20825;BME280;10573;50.936;6.978;2023-04-15T07:15:32;100534.66;;;12.69;49.87
20825;BME280;10573;50.936;6.978;2023-04-15T07:17:58;100530.59;;;12.90;49.67
20825;BME280;10573;50.936;6.978;2023-04-15T07:20:23;100544.47;;;12.54;50.05
20825;BME280;10573;50.936;6.978;2023-04-15T07:22:49;100535.13;;;13.16;50.19
20825;BME280;10573;50.936;6.978;2023-04-15T07:25:14;100549.09;;;12.96;48.96
20825;BME280;10573;50.936;6.978;2023-04-15T07:27:39;100541.19;;;12.85;49.63
20825;BME280;10573;50.936;6.978;2023-04-15T07:30:05;100548.34;;;12.78;49.71
20825;BME280;10573;50.936;6.978;2023-04-15T07:32:30;100545.22;;;13.32;49.01
20825;BME280;10573;50.936;6.978;2023-04-15T07:34:56;100551.09;;;13.37;48.94
20825;BME280;10573;50.936;6.978;2023-04-15T07:37:21;100553.34;;;13.50;49.14
20825;BME280;10573;50.936;6.978;2023-04-15T07:39:47;100556.22;;;12.89;49.53
20825;BME280;10573;50.936;6.978;2023-04-15T07:42:13;100542.38;;;13.83;47.92
20825;BME280;10573;50.936;6.978;2023-04-15T07:44:39;100542.38;;;13.99;46.95
20825;BME280;10573;50.936;6.978;2023-04-15T07:47:04;100551.47;;;13.58;47.88
20825;BME280;10573;50.936;6.978;2023-04-15T07:49:30;100548.53;;;14.01;47.71
20825;BME280;10573;50.936;6.978;2023-04-15T07:51:55;100548.63;;;14.49;46.19
20825;BME280;10573;50.936;6.978;2023-04-15T07:54:21;100551.16;;;14.67;46.18
20825;BME280;10573;50.936;6.978;2023-04-15T07:56:47;100546.72;;;14.50;46.62
20825;BME280;10573;50.936;6.978;2023-04-15T07:59:12;100557.09;;;14.06;47.15
20825;BME280;10573;50.936;6.978;2023-04-15T08:01:39;100564.78;;;13.62;48.19
20825;BME280;10573;50.936;6.978;2023-04-15T08:04:07;100567.34;;;13.55;48.13
20825;BME280;10573;50.936;6.978;2023-04-15T08:06:32;100556.44;;;13.88;47.17
20825;BME280;10573;50.936;6.978;2023-04-15T08:08:58;100563.94;;;13.69;47.55
20825;BME280;10573;50.936;6.978;2023-04-15T08:11:23;100563.94;;;14.19;47.06
20825;BME280;10573;50.936;6.978;2023-04-15T08:13:48;100565.66;;;14.03;46.72
20825;BME280;10573;50.936;6.978;2023-04-15T08:16:20;100568.59;;;13.69;45.83
20825;BME280;10573;50.936;6.978;2023-04-15T08:18:47;100570.44;;;14.01;44.86
20825;BME280;10573;50.936;6.978;2023-04-15T08:21:12;100569.03;;;14.38;43.74
20825;BME280;10573;50.936;6.978;2023-04-15T08:23:38;100582.25;;;13.93;43.29
20825;BME280;10573;50.936;6.978;2023-04-15T08:26:03;100565.72;;;15.07;42.86
20825;BME280;10573;50.936;6.978;2023-04-15T08:28:29;100564.97;;;15.22;41.47
20825;BME280;10573;50.936;6.978;2023-04-15T08:30:54;100580.91;;;15.50;42.06
20825;BME280;10573;50.936;6.978;2023-04-15T08:33:20;100578.22;;;14.70;41.68
20825;BME280;10573;50.936;6.978;2023-04-15T08:35:45;100573.66;;;15.80;40.22
20825;BME280;10573;50.936;6.978;2023-04-15T08:38:11;100585.06;;;14.74;41.42
20825;BME280;10573;50.936;6.978;2023-04-15T08:40:40;100585.28;;;14.48;41.77
20825;BME280;10573;50.936;6.978;2023-04-15T08:43:06;100585.13;;;14.41;41.94
20825;BME280;10573;50.936;6.978;2023-04-15T08:45:33;100588.84;;;14.73;41.52
20825;BME280;10573;50.936;6.978;2023-04-15T08:47:59;100602.66;;;14.07;42.81
20825;BME280;10573;50.936;6.978;2023-04-15T08:50:26;100604.44;;;14.65;42.14
20825;BME280;10573;50.936;6.978;2023-04-15T08:52:54;100602.94;;;14.46;42.27
20825;BME280;10573;50.936;6.978;2023-04-15T08:55:19;100597.84;;;14.99;41.10
20825;BME280;10573;50.936;6.978;2023-04-15T08:57:45;100605.88;;;14.36;41.99
20825;BME280;10573;50.936;6.978;2023-04-15T09:00:11;100614.59;;;14.48;41.78
20825;BME280;10573;50.936;6.978;2023-04-15T09:02:36;100610.13;;;14.63;41.96
20825;BME280;10573;50.936;6.978;2023-04-15T09:05:02;100608.94;;;14.49;42.05
20825;BME280;10573;50.936;6.978;2023-04-15T09:07:32;100614.94;;;14.36;42.33
20825;BME280;10573;50.936;6.978;2023-04-15T09:09:57;100607.75;;;15.63;41.26
20825;BME280;10573;50.936;6.978;2023-04-15T09:12:24;100607.38;;;15.97;39.89
20825;BME280;10573;50.936;6.978;2023-04-15T09:14:49;100605.72;;;15.33;39.53
20825;BME280;10573;50.936;6.978;2023-04-15T09:17:17;100616.50;;;16.13;38.13
20825;BME280;10573;50.936;6.978;2023-04-15T09:19:43;100615.91;;;16.02;38.10
20825;BME280;10573;50.936;6.978;2023-04-15T09:22:08;100616.09;;;16.54;39.14
20825;BME280;10573;50.936;6.978;2023-04-15T09:24:35;100621.19;;;15.89;38.74
20825;BME280;10573;50.936;6.978;2023-04-15T09:27:02;100627.84;;;15.63;40.20
20825;BME280;10573;50.936;6.978;2023-04-15T09:29:27;100632.03;;;15.19;41.00
20825;BME280;10573;50.936;6.978;2023-04-15T09:31:53;100636.47;;;14.81;41.69
20825;BME280;10573;50.936;6.978;2023-04-15T09:34:18;100643.38;;;14.27;42.10
20825;BME280;10573;50.936;6.978;2023-04-15T09:39:14;100652.63;;;14.34;42.18
20825;BME280;10573;50.936;6.978;2023-04-15T09:41:40;100651.22;;;14.55;42.17
20825;BME280;10573;50.936;6.978;2023-04-15T09:44:05;100654.31;;;15.56;40.98
20825;BME280;10573;50.936;6.978;2023-04-15T09:46:41;100647.16;;;15.15;41.03
20825;BME280;10573;50.936;6.978;2023-04-15T09:49:07;100643.72;;;16.75;38.65
20825;BME280;10573;50.936;6.978;2023-04-15T09:51:33;100647.56;;;15.98;40.03
20825;BME280;10573;50.936;6.978;2023-04-15T09:54:02;100651.13;;;16.75;38.60
20825;BME280;10573;50.936;6.978;2023-04-15T09:56:34;100653.91;;;17.71;37.56
20825;BME280;10573;50.936;6.978;2023-04-15T09:59:06;100647.94;;;17.89;37.38
20825;BME280;10573;50.936;6.978;2023-04-15T10:01:31;100642.00;;;18.29;36.10
20825;BME280;10573;50.936;6.978;2023-04-15T10:03:56;100657.84;;;17.84;36.06
20825;BME280;10573;50.936;6.978;2023-04-15T10:06:22;100663.22;;;17.70;36.58
20825;BME280;10573;50.936;6.978;2023-04-15T10:08:48;100664.56;;;16.17;39.56
20825;BME280;10573;50.936;6.978;2023-04-15T10:11:13;100674.69;;;17.22;38.24
20825;BME280;10573;50.936;6.978;2023-04-15T10:13:39;100678.97;;;16.57;38.92
20825;BME280;10573;50.936;6.978;2023-04-15T10:16:13;100674.59;;;17.01;38.70
20825;BME280;10573;50.936;6.978;2023-04-15T10:18:42;100678.22;;;17.16;39.17
20825;BME280;10573;50.936;6.978;2023-04-15T10:21:08;100694.06;;;16.23;40.48
20825;BME280;10573;50.936;6.978;2023-04-15T10:23:33;100686.28;;;15.49;42.30
20825;BME280;10573;50.936;6.978;2023-04-15T10:25:59;100692.31;;;15.75;41.90
20825;BME280;10573;50.936;6.978;2023-04-15T10:28:25;100682.91;;;16.01;41.82
20825;BME280;10573;50.936;6.978;2023-04-15T10:30:51;100681.72;;;17.10;40.10
20825;BME280;10573;50.936;6.978;2023-04-15T10:33:17;100673.44;;;17.76;38.64
20825;BME280;10573;50.936;6.978;2023-04-15T10:35:44;100679.16;;;18.33;37.60
20825;BME280;10573;50.936;6.978;2023-04-15T10:40:58;100697.53;;;16.40;41.21
20825;BME280;10573;50.936;6.978;2023-04-15T10:43:36;100699.44;;;15.53;42.38
20825;BME280;10573;50.936;6.978;2023-04-15T10:46:03;100702.00;;;15.94;42.51
20825;BME280;10573;50.936;6.978;2023-04-15T10:48:29;100699.56;;;16.23;41.96
20825;BME280;10573;50.936;6.978;2023-04-15T10:50:55;100691.84;;;16.41;41.58
20825;BME280;10573;50.936;6.978;2023-04-15T10:53:28;100702.53;;;15.90;42.58
20825;BME280;10573;50.936;6.978;2023-04-15T10:55:53;100703.97;;;15.77;42.60
20825;BME280;10573;50.936;6.978;2023-04-15T10:58:22;100709.19;;;15.64;43.53
20825;BME280;10573;50.936;6.978;2023-04-15T11:00:51;100706.53;;;16.10;42.51
20825;BME280;10573;50.936;6.978;2023-04-15T11:03:20;100707.59;;;15.38;43.11
20825;BME280;10573;50.936;6.978;2023-04-15T11:05:58;100713.69;;;15.09;44.06
20825;BME280;10573;50.936;6.978;2023-04-15T11:08:51;100716.47;;;15.49;43.85
20825;BME280;10573;50.936;6.978;2023-04-15T11:11:08;100723.81;;;15.08;44.76
20825;BME280;10573;50.936;6.978;2023-04-15T11:13:34;100729.75;;;15.68;43.81
20825;BME280;10573;50.936;6.978;2023-04-15T11:16:00;100729.88;;;15.43;43.67
20825;BME280;10573;50.936;6.978;2023-04-15T11:18:27;100708.34;;;15.16;43.86
20825;BME280;10573;50.936;6.978;2023-04-15T11:20:55;100729.34;;;15.00;44.42
20825;BME280;10573;50.936;6.978;2023-04-15T11:23:30;100737.81;;;15.30;44.27
20825;BME280;10573;50.936;6.978;2023-04-15T11:25:57;100744.63;;;14.78;45.25
20825;BME280;10573;50.936;6.978;2023-04-15T11:28:26;100735.31;;;15.04;45.42
20825;BME280;10573;50.936;6.978;2023-04-15T11:30:52;100735.16;;;15.05;45.00
20825;BME280;10573;50.936;6.978;2023-04-15T11:33:18;100745.16;;;14.73;45.85
20825;BME280;10573;50.936;6.978;2023-04-15T11:35:43;100758.34;;;14.78;45.34
20825;BME280;10573;50.936;6.978;2023-04-15T11:38:09;100757.81;;;14.50;46.25
20825;BME280;10573;50.936;6.978;2023-04-15T11:40:36;100761.22;;;14.43;46.16
20825;BME280;10573;50.936;6.978;2023-04-15T11:43:06;100767.56;;;14.60;46.39
20825;BME280;10573;50.936;6.978;2023-04-15T11:45:31;100759.34;;;15.02;46.00
20825;BME280;10573;50.936;6.978;2023-04-15T11:48:07;100763.16;;;15.49;44.38
20825;BME280;10573;50.936;6.978;2023-04-15T11:50:32;100765.13;;;15.71;44.62
20825;BME280;10573;50.936;6.978;2023-04-15T11:52:58;100772.75;;;14.72;46.52
20825;BME280;10573;50.936;6.978;2023-04-15T11:55:24;100783.13;;;14.19;47.94
20825;BME280;10573;50.936;6.978;2023-04-15T11:58:04;100783.66;;;14.39;47.45
20825;BME280;10573;50.936;6.978;2023-04-15T12:00:29;100799.94;;;14.57;46.97
20825;BME280;10573;50.936;6.978;2023-04-15T12:03:10;100792.91;;;14.46;47.99
20825;BME280;10573;50.936;6.978;2023-04-15T12:05:35;100792.44;;;14.84;47.57
20825;BME280;10573;50.936;6.978;2023-04-15T12:08:01;100808.28;;;14.14;48.77
20825;BME280;10573;50.936;6.978;2023-04-15T12:10:26;100808.41;;;14.80;48.29
20825;BME280;10573;50.936;6.978;2023-04-15T12:12:52;100810.22;;;14.55;48.27
20825;BME280;10573;50.936;6.978;2023-04-15T12:15:20;100813.31;;;14.60;48.33
20825;BME280;10573;50.936;6.978;2023-04-15T12:17:46;100803.53;;;15.23;47.06
20825;BME280;10573;50.936;6.978;2023-04-15T12:20:11;100818.84;;;14.93;47.82
20825;BME280;10573;50.936;6.978;2023-04-15T12:22:37;100820.22;;;14.64;48.51
20825;BME280;10573;50.936;6.978;2023-04-15T12:25:02;100820.22;;;14.64;48.71
20825;BME280;10573;50.936;6.978;2023-04-15T12:27:28;100825.56;;;14.15;49.83
20825;BME280;10573;50.936;6.978;2023-04-15T12:30:02;100844.41;;;13.40;51.65
20825;BME280;10573;50.936;6.978;2023-04-15T12:32:27;100846.22;;;13.58;51.66
20825;BME280;10573;50.936;6.978;2023-04-15T12:34:53;100845.25;;;13.67;51.64
20825;BME280;10573;50.936;6.978;2023-04-15T12:37:19;100853.91;;;13.54;51.78
20825;BME280;10573;50.936;6.978;2023-04-15T12:39:46;100859.81;;;14.10;50.92
20825;BME280;10573;50.936;6.978;2023-04-15T12:42:13;100863.16;;;13.35;52.47
20825;BME280;10573;50.936;6.978;2023-04-15T12:44:38;100870.22;;;13.38;52.87
20825;BME280;10573;50.936;6.978;2023-04-15T12:47:04;100873.28;;;13.17;53.07
20825;BME280;10573;50.936;6.978;2023-04-15T12:49:30;100881.34;;;13.36;52.97
20825;BME280;10573;50.936;6.978;2023-04-15T12:51:57;100881.72;;;13.23;53.09
20825;BME280;10573;50.936;6.978;2023-04-15T12:54:24;100886.63;;;13.20;53.04